Time;durP1;ratioP1;P1;durP2;ratioP2;P2;SDS_P1;SDS_P2;PMS_P1;PMS_P2;Temp;Humidity;BMP_temperature;BMP_pressure;BME280_temperature;BME280_humidity;BME280_pressure;Samples;Min_cycle;Max_cycle;Signal;HPM_P1;HPM_P2
2022/07/21 00:00:59;;;;;;;2.87;2.30;;;26.90;40.20;;;;;;4250006;27;20200;-76
2022/07/21 00:03:01;;;;;;;6.87;2.53;;;26.80;40.50;;;;;;4252647;27;20223;-76
2022/07/21 00:05:04;;;;;;;2.93;2.50;;;26.80;41.00;;;;;;4251597;27;20253;-76
2022/07/21 00:07:06;;;;;;;4.33;2.40;;;26.70;41.70;;;;;;4256982;27;20203;-76
2022/07/21 00:09:07;;;;;;;6.53;2.93;;;26.60;41.70;;;;;;4257640;27;20286;-76
2022/07/21 00:11:09;;;;;;;7.13;2.83;;;26.60;42.00;;;;;;4253764;27;20192;-75
2022/07/21 00:13:11;;;;;;;5.80;2.60;;;26.50;42.30;;;;;;4252878;27;20211;-76
2022/07/21 00:15:16;;;;;;;5.03;2.40;;;26.50;42.40;;;;;;4260024;27;20294;-76
2022/07/21 00:17:19;;;;;;;3.27;2.30;;;26.50;42.60;;;;;;4256055;27;20827;-76
2022/07/21 00:19:21;;;;;;;6.83;2.60;;;26.40;42.60;;;;;;4261782;27;20313;-77
2022/07/21 00:21:23;;;;;;;7.77;3.10;;;26.40;43.20;;;;;;4259647;27;20219;-77
2022/07/21 00:23:25;;;;;;;5.77;2.93;;;26.30;43.50;;;;;;4237890;27;20277;-76
2022/07/21 00:25:27;;;;;;;8.10;3.30;;;26.30;43.70;;;;;;4261748;27;20200;-76
2022/07/21 00:27:29;;;;;;;11.73;4.40;;;26.20;44.20;;;;;;4253194;27;20551;-74
2022/07/21 00:29:31;;;;;;;9.13;3.70;;;26.20;44.50;;;;;;4255374;27;20513;-76
2022/07/21 00:31:33;;;;;;;6.23;3.63;;;26.20;45.00;;;;;;4238554;27;20207;-76
2022/07/21 00:33:36;;;;;;;16.40;5.53;;;26.20;45.30;;;;;;4260511;27;20807;-76
2022/07/21 00:35:39;;;;;;;7.53;4.53;;;26.10;47.30;;;;;;4255989;27;20207;-77
2022/07/21 00:37:41;;;;;;;8.73;5.47;;;26.10;47.80;;;;;;4252232;27;20239;-77
2022/07/21 00:39:44;;;;;;;14.70;6.37;;;26.10;48.40;;;;;;4248105;27;20208;-77
2022/07/21 00:41:46;;;;;;;17.83;7.47;;;26.10;51.50;;;;;;4260964;27;20199;-76
2022/07/21 00:43:48;;;;;;;14.80;7.93;;;26.10;54.80;;;;;;4265110;27;20219;-75
2022/07/21 00:45:52;;;;;;;12.60;7.70;;;26.10;56.80;;;;;;4262576;27;20195;-76
2022/07/21 00:47:54;;;;;;;22.07;8.17;;;26.10;58.00;;;;;;4256266;27;20195;-77
2022/07/21 00:49:59;;;;;;;18.27;7.80;;;26.10;59.50;;;;;;4265624;27;20702;-76
2022/07/21 00:52:01;;;;;;;16.70;7.70;;;26.10;60.70;;;;;;4260149;27;20233;-76
2022/07/21 00:54:03;;;;;;;21.07;8.20;;;26.00;61.10;;;;;;4244207;27;20200;-76
2022/07/21 00:56:06;;;;;;;17.53;7.67;;;26.00;61.20;;;;;;4262400;27;20290;-76
2022/07/21 00:58:08;;;;;;;15.57;8.10;;;26.00;61.10;;;;;;4262536;27;20219;-76
2022/07/21 01:00:14;;;;;;;22.10;8.30;;;26.00;62.90;;;;;;4243809;27;20649;-77
2022/07/21 01:02:16;;;;;;;16.60;7.83;;;26.00;62.40;;;;;;4266513;27;20210;-77
2022/07/21 01:04:18;;;;;;;14.20;6.97;;;26.00;63.90;;;;;;4266136;27;20301;-76
2022/07/21 01:06:24;;;;;;;15.93;7.93;;;26.00;64.60;;;;;;4255542;27;20238;-75
2022/07/21 01:08:27;;;;;;;23.17;7.80;;;25.90;64.80;;;;;;4259164;27;20670;-75
2022/07/21 01:10:31;;;;;;;14.50;8.10;;;25.90;67.60;;;;;;4245798;27;20212;-75
2022/07/21 01:12:33;;;;;;;13.53;7.60;;;25.80;68.00;;;;;;4257230;27;20298;-75
2022/07/21 01:14:35;;;;;;;18.50;7.83;;;25.80;67.40;;;;;;4256454;27;20283;-75
2022/07/21 01:16:37;;;;;;;21.27;7.93;;;25.80;68.70;;;;;;4255129;27;20200;-75
2022/07/21 01:18:39;;;;;;;17.77;7.80;;;25.70;70.90;;;;;;4263161;27;20223;-75
2022/07/21 01:20:45;;;;;;;10.40;6.57;;;25.70;69.80;;;;;;4262131;27;20200;-75
2022/07/21 01:22:50;;;;;;;19.17;7.70;;;25.70;70.10;;;;;;4234909;27;20259;-75
2022/07/21 01:24:52;;;;;;;15.03;7.20;;;25.60;72.40;;;;;;4256348;27;20234;-75
2022/07/21 01:26:54;;;;;;;15.37;6.87;;;25.60;71.70;;;;;;4260246;27;20292;-75
2022/07/21 01:28:57;;;;;;;16.73;7.07;;;25.50;72.00;;;;;;4240798;27;20342;-75
2022/07/21 01:30:59;;;;;;;14.10;7.40;;;25.50;73.60;;;;;;4250903;27;20627;-75
2022/07/21 01:33:02;;;;;;;9.50;6.90;;;25.40;74.10;;;;;;4261459;27;20199;-75
2022/07/21 01:35:06;;;;;;;12.07;6.67;;;25.40;74.30;;;;;;4265455;27;20650;-77
2022/07/21 01:37:08;;;;;;;14.43;6.90;;;25.30;75.70;;;;;;4263478;27;20221;-76
2022/07/21 01:41:35;;;;;;;12.07;7.47;;;25.20;77.90;;;;;;4245163;27;20344;-76
2022/07/21 01:43:37;;;;;;;14.77;7.27;;;25.20;77.90;;;;;;4259057;27;20203;-75
2022/07/21 01:45:41;;;;;;;13.40;7.00;;;25.10;78.30;;;;;;4257291;27;20274;-75
2022/07/21 01:47:43;;;;;;;17.67;7.30;;;25.10;77.80;;;;;;4256042;27;20279;-75
2022/07/21 01:49:45;;;;;;;12.83;6.50;;;25.00;78.60;;;;;;4260692;27;20640;-75
2022/07/21 01:51:47;;;;;;;11.43;6.63;;;25.00;78.60;;;;;;4255004;27;20211;-75
2022/07/21 01:53:52;;;;;;;8.30;6.23;;;25.00;76.50;;;;;;4260143;27;20622;-75
2022/07/21 01:55:55;;;;;;;10.47;6.53;;;25.00;76.10;;;;;;4234714;27;20209;-75
2022/07/21 01:57:57;;;;;;;11.37;5.90;;;24.90;75.90;;;;;;4259395;27;20260;-76
2022/07/21 01:59:59;;;;;;;8.07;5.23;;;24.90;74.80;;;;;;4237417;27;20205;-75
2022/07/21 02:02:01;;;;;;;9.87;5.93;;;24.90;74.10;;;;;;4240132;27;20212;-76
2022/07/21 02:04:05;;;;;;;12.10;6.13;;;24.80;74.10;;;;;;4256426;27;20230;-76
2022/07/21 02:06:08;;;;;;;8.40;5.90;;;24.80;74.10;;;;;;4255535;27;20285;-75
2022/07/21 02:08:10;;;;;;;10.23;5.77;;;24.80;73.30;;;;;;4262738;27;20310;-75
2022/07/21 02:10:12;;;;;;;9.57;5.60;;;24.80;73.60;;;;;;4255523;27;20206;-75
2022/07/21 02:12:15;;;;;;;8.40;5.73;;;24.70;73.00;;;;;;4255571;27;20199;-75
2022/07/21 02:14:17;;;;;;;8.53;5.53;;;24.70;73.20;;;;;;4256007;27;20279;-75
2022/07/21 02:16:19;;;;;;;8.10;5.17;;;24.70;72.90;;;;;;4260657;27;20625;-75
2022/07/21 02:18:21;;;;;;;11.07;6.33;;;24.60;72.80;;;;;;4256515;27;20306;-75
2022/07/21 02:20:24;;;;;;;6.70;5.27;;;24.60;73.00;;;;;;4251770;27;20639;-76
2022/07/21 02:22:26;;;;;;;10.80;5.53;;;24.60;72.50;;;;;;4258073;27;20198;-76
2022/07/21 02:24:28;;;;;;;9.60;5.70;;;24.50;72.10;;;;;;4257272;27;20222;-76
2022/07/21 02:26:30;;;;;;;10.83;5.10;;;24.50;71.70;;;;;;4260577;27;20255;-76
2022/07/21 02:28:33;;;;;;;12.80;5.30;;;24.50;71.40;;;;;;4236044;27;20327;-77
2022/07/21 02:30:35;;;;;;;6.20;5.37;;;24.50;70.50;;;;;;4259288;27;20270;-76
2022/07/21 02:32:37;;;;;;;8.87;5.10;;;24.50;71.00;;;;;;4258115;27;20564;-75
2022/07/21 02:34:39;;;;;;;8.40;5.30;;;24.50;70.90;;;;;;4236951;27;20284;-76
2022/07/21 02:36:41;;;;;;;9.47;5.40;;;24.40;71.20;;;;;;4253950;27;20206;-76
2022/07/21 02:38:43;;;;;;;9.57;5.30;;;24.40;71.70;;;;;;4252224;27;20668;-75
2022/07/21 02:40:45;;;;;;;9.13;5.67;;;24.40;71.20;;;;;;4264188;27;20626;-76
2022/07/21 02:42:47;;;;;;;9.60;5.27;;;24.30;71.00;;;;;;4260262;27;20210;-76
2022/07/21 02:44:50;;;;;;;7.07;5.17;;;24.30;70.80;;;;;;4258379;27;20226;-76
2022/07/21 02:46:52;;;;;;;7.80;5.33;;;24.30;70.90;;;;;;4257141;27;20662;-76
2022/07/21 02:48:56;;;;;;;10.77;5.43;;;24.30;70.50;;;;;;4257374;27;20706;-77
2022/07/21 02:50:58;;;;;;;9.47;5.60;;;24.30;70.40;;;;;;4260582;27;20213;-76
2022/07/21 02:53:02;;;;;;;8.07;5.40;;;24.20;71.20;;;;;;4260564;27;20627;-76
2022/07/21 02:55:05;;;;;;;9.43;5.93;;;24.20;71.20;;;;;;4264308;27;20293;-77
2022/07/21 02:57:07;;;;;;;7.77;5.60;;;24.20;71.30;;;;;;4261050;27;20215;-76
2022/07/21 02:59:09;;;;;;;12.90;5.87;;;24.20;71.60;;;;;;4257690;27;20390;-75
2022/07/21 03:01:12;;;;;;;7.93;5.43;;;24.20;71.80;;;;;;4259106;27;20301;-75
2022/07/21 03:03:14;;;;;;;12.80;5.43;;;24.10;72.00;;;;;;4252541;27;20211;-76
2022/07/21 03:05:16;;;;;;;6.10;5.27;;;24.10;72.10;;;;;;4258303;27;20242;-76
2022/07/21 03:07:20;;;;;;;7.70;5.17;;;24.10;71.80;;;;;;4258894;27;20632;-75
2022/07/21 03:09:22;;;;;;;7.27;4.97;;;24.10;72.10;;;;;;4257515;27;20218;-77
2022/07/21 03:11:25;;;;;;;8.17;5.37;;;24.00;71.60;;;;;;4236476;27;20247;-76
2022/07/21 03:13:27;;;;;;;9.90;5.60;;;24.00;72.40;;;;;;4257781;27;20610;-76
2022/07/21 03:15:29;;;;;;;9.87;5.60;;;24.00;72.40;;;;;;4239392;27;20229;-76
2022/07/21 03:17:32;;;;;;;8.20;5.47;;;24.00;72.10;;;;;;4260656;27;20289;-75
2022/07/21 03:19:34;;;;;;;8.73;4.90;;;23.90;72.40;;;;;;4237837;27;20235;-76
2022/07/21 03:21:36;;;;;;;6.83;4.67;;;23.90;72.40;;;;;;4236716;27;20203;-75
2022/07/21 03:23:39;;;;;;;6.10;5.07;;;23.90;71.70;;;;;;4260433;27;20203;-75
2022/07/21 03:25:41;;;;;;;7.27;4.87;;;23.90;72.20;;;;;;4263250;27;20225;-76
2022/07/21 03:27:43;;;;;;;6.40;5.03;;;23.90;72.00;;;;;;4247088;27;20641;-76
2022/07/21 03:29:45;;;;;;;8.53;4.93;;;23.90;71.70;;;;;;4243898;27;20690;-75
2022/07/21 03:31:47;;;;;;;7.40;5.00;;;23.90;72.20;;;;;;4261195;27;20199;-76
2022/07/21 03:33:50;;;;;;;6.63;5.07;;;23.90;72.10;;;;;;4241744;27;20306;-75
2022/07/21 03:35:52;;;;;;;9.97;4.83;;;23.80;72.00;;;;;;4255037;27;20218;-75
2022/07/21 03:37:56;;;;;;;7.33;4.80;;;23.80;72.20;;;;;;4257542;27;20271;-76
2022/07/21 03:39:58;;;;;;;7.17;5.10;;;23.80;72.90;;;;;;4253901;27;20259;-75
2022/07/21 03:42:01;;;;;;;9.33;5.10;;;23.80;73.30;;;;;;4258793;27;20257;-76
2022/07/21 03:44:02;;;;;;;7.13;5.03;;;23.80;74.30;;;;;;4253692;27;20206;-76
2022/07/21 03:46:05;;;;;;;8.70;5.03;;;23.80;74.40;;;;;;4261258;27;20270;-77
2022/07/21 03:48:08;;;;;;;8.07;4.83;;;23.80;74.70;;;;;;4258808;27;20227;-74
2022/07/21 03:50:12;;;;;;;8.00;5.20;;;23.80;77.60;;;;;;4252641;27;20213;-74
2022/07/21 03:52:17;;;;;;;9.47;5.50;;;23.70;79.30;;;;;;4262289;27;20246;-74
2022/07/21 03:54:19;;;;;;;12.03;5.27;;;23.70;81.80;;;;;;4261646;27;20203;-75
2022/07/21 03:56:21;;;;;;;10.70;5.20;;;23.60;84.60;;;;;;4262717;27;20644;-76
2022/07/21 03:58:25;;;;;;;10.70;5.57;;;23.60;86.60;;;;;;4253014;27;20262;-74
2022/07/21 04:00:32;;;;;;;8.47;5.10;;;23.60;89.10;;;;;;4254228;27;20237;-74
2022/07/21 04:02:34;;;;;;;7.63;4.67;;;23.60;88.10;;;;;;4256624;27;20277;-75
2022/07/21 04:04:36;;;;;;;5.77;4.17;;;23.60;89.50;;;;;;4256414;27;20200;-74
2022/07/21 04:06:39;;;;;;;8.90;4.37;;;23.50;90.10;;;;;;4263314;27;20233;-77
2022/07/21 04:08:41;;;;;;;8.10;4.23;;;23.50;90.50;;;;;;4262237;27;20254;-75
2022/07/21 04:10:44;;;;;;;6.30;4.10;;;23.50;91.30;;;;;;4245373;27;20722;-75
2022/07/21 04:12:47;;;;;;;5.43;4.43;;;23.50;91.70;;;;;;4260976;27;20195;-74
2022/07/21 04:14:49;;;;;;;5.00;4.27;;;23.50;91.50;;;;;;4266271;27;20206;-74
2022/07/21 04:16:51;;;;;;;5.53;4.37;;;23.50;91.70;;;;;;4246160;27;20203;-74
2022/07/21 04:18:53;;;;;;;5.23;4.27;;;23.50;92.30;;;;;;4256953;27;20314;-74
2022/07/21 04:20:54;;;;;;;6.60;4.40;;;23.50;92.10;;;;;;4260063;27;20211;-75
2022/07/21 04:22:58;;;;;;;5.07;3.80;;;23.50;92.30;;;;;;4242112;27;20303;-74
2022/07/21 04:25:00;;;;;;;4.63;3.73;;;23.50;91.90;;;;;;4259963;27;20254;-75
2022/07/21 04:27:02;;;;;;;5.80;4.10;;;23.60;92.60;;;;;;4260294;27;20203;-75
2022/07/21 04:29:04;;;;;;;4.70;3.70;;;23.60;92.40;;;;;;4254660;27;20227;-76
2022/07/21 04:31:06;;;;;;;5.13;3.80;;;23.60;92.40;;;;;;4258116;27;20294;-74
2022/07/21 04:33:08;;;;;;;4.00;3.33;;;23.60;92.00;;;;;;4262002;27;20206;-74
2022/07/21 04:35:11;;;;;;;4.43;3.57;;;23.70;92.20;;;;;;4241350;27;20765;-74
2022/07/21 04:37:13;;;;;;;4.73;3.37;;;23.70;92.00;;;;;;4262540;27;20211;-74
2022/07/21 04:39:17;;;;;;;4.87;3.17;;;23.80;91.70;;;;;;4262220;27;20250;-74
2022/07/21 04:41:19;;;;;;;4.70;3.07;;;23.80;91.50;;;;;;4242275;27;20200;-74
2022/07/21 04:43:21;;;;;;;7.70;3.30;;;23.90;91.00;;;;;;4263526;27;20286;-75
2022/07/21 04:45:22;;;;;;;3.63;3.10;;;23.90;91.20;;;;;;4267745;27;20302;-75
2022/07/21 04:47:24;;;;;;;3.57;3.10;;;23.90;91.30;;;;;;4266127;27;20226;-76
2022/07/21 04:49:26;;;;;;;3.80;3.20;;;23.90;90.90;;;;;;4241749;27;20256;-75
2022/07/21 04:51:28;;;;;;;3.77;3.07;;;23.90;90.40;;;;;;4255385;27;20227;-75
2022/07/21 04:53:30;;;;;;;6.50;3.07;;;24.00;90.70;;;;;;4259941;27;20231;-75
2022/07/21 04:55:33;;;;;;;4.60;3.40;;;24.00;90.40;;;;;;4241793;27;20690;-75
2022/07/21 04:57:38;;;;;;;3.83;3.07;;;24.00;90.00;;;;;;4239860;27;20274;-75
2022/07/21 04:59:40;;;;;;;3.47;3.03;;;24.00;90.20;;;;;;4258270;27;20223;-75
2022/07/21 05:01:42;;;;;;;4.03;3.10;;;24.10;90.60;;;;;;4261631;27;20281;-75
2022/07/21 05:03:44;;;;;;;4.43;3.33;;;24.10;89.80;;;;;;4258336;27;20199;-75
2022/07/21 05:05:46;;;;;;;3.07;2.60;;;24.20;89.80;;;;;;4260888;27;20707;-76
2022/07/21 05:07:48;;;;;;;4.20;3.10;;;24.20;90.10;;;;;;4257557;27;20203;-77
2022/07/21 05:09:53;;;;;;;4.33;3.33;;;24.20;89.30;;;;;;4261285;27;20206;-78
2022/07/21 05:11:56;;;;;;;3.67;2.80;;;24.30;89.80;;;;;;4260266;27;20205;-76
2022/07/21 05:13:58;;;;;;;6.47;3.07;;;24.30;89.70;;;;;;4244024;27;20266;-76
2022/07/21 05:16:00;;;;;;;4.70;3.00;;;24.30;89.10;;;;;;4257224;27;20202;-73
2022/07/21 05:18:02;;;;;;;4.20;3.00;;;24.30;89.20;;;;;;4262022;27;20203;-72
2022/07/21 05:20:05;;;;;;;4.27;3.00;;;24.30;88.40;;;;;;4262399;27;20285;-73
2022/07/21 05:22:07;;;;;;;6.30;3.53;;;24.30;99.90;;;;;;4259301;27;20231;-77
2022/07/21 05:24:10;;;;;;;5.30;3.57;;;23.70;99.90;;;;;;4260672;27;20238;-74
2022/07/21 05:26:12;;;;;;;6.03;3.83;;;23.50;99.90;;;;;;4238752;27;20232;-75
2022/07/21 05:28:15;;;;;;;5.97;3.77;;;23.30;99.90;;;;;;4254686;27;20228;-75
2022/07/21 05:30:18;;;;;;;5.67;3.80;;;23.20;99.90;;;;;;4232534;27;20207;-75
2022/07/21 05:32:20;;;;;;;5.83;3.70;;;23.10;99.90;;;;;;4253985;27;20211;-74
2022/07/21 05:34:22;;;;;;;4.90;3.70;;;23.10;99.90;;;;;;4249416;27;20290;-74
2022/07/21 05:36:24;;;;;;;4.73;4.00;;;23.20;99.90;;;;;;4234797;27;20692;-75
2022/07/21 05:38:29;;;;;;;5.37;3.80;;;23.10;99.90;;;;;;4251315;27;20239;-74
2022/07/21 05:40:31;;;;;;;5.10;3.57;;;23.10;99.90;;;;;;4246007;27;20685;-74
2022/07/21 05:42:36;;;;;;;4.93;3.87;;;23.10;99.90;;;;;;4250640;27;20205;-74
2022/07/21 05:44:39;;;;;;;4.97;3.40;;;23.20;99.90;;;;;;4250945;27;20233;-74
2022/07/21 05:46:41;;;;;;;5.07;3.93;;;23.20;99.90;;;;;;4249444;27;20226;-74
2022/07/21 05:48:43;;;;;;;4.80;3.60;;;23.10;99.90;;;;;;4258719;27;20234;-74
2022/07/21 05:50:45;;;;;;;6.17;3.53;;;23.20;99.90;;;;;;4252194;27;20771;-74
2022/07/21 05:52:47;;;;;;;5.47;3.63;;;23.20;99.90;;;;;;4253636;27;20289;-74
2022/07/21 05:54:51;;;;;;;4.33;3.50;;;23.20;99.90;;;;;;4236790;27;20292;-75
2022/07/21 05:56:53;;;;;;;7.90;3.83;;;23.20;99.90;;;;;;4256074;27;20199;-74
2022/07/21 05:58:55;;;;;;;5.60;3.60;;;23.20;99.90;;;;;;4235328;27;20255;-75
2022/07/21 06:01:12;;;;;;;8.80;3.97;;;23.30;99.90;;;;;;4240226;27;20305;-75
2022/07/21 06:03:14;;;;;;;5.13;3.57;;;23.20;99.90;;;;;;4240590;27;20611;-75
2022/07/21 06:05:17;;;;;;;6.23;3.67;;;23.30;99.90;;;;;;4249654;27;20218;-75
2022/07/21 06:07:19;;;;;;;3.87;3.47;;;23.30;99.90;;;;;;4254758;27;20207;-74
2022/07/21 06:09:21;;;;;;;3.77;3.30;;;23.30;99.90;;;;;;4236457;27;20315;-74
2022/07/21 06:11:23;;;;;;;4.90;3.23;;;23.30;99.90;;;;;;4248655;27;20215;-74
2022/07/21 06:13:25;;;;;;;4.67;3.47;;;23.40;99.90;;;;;;4249244;27;20746;-74
2022/07/21 06:15:27;;;;;;;7.23;3.60;;;23.40;99.90;;;;;;4246463;27;20267;-73
2022/07/21 06:17:32;;;;;;;6.00;3.77;;;23.50;99.90;;;;;;4252138;27;20214;-74
2022/07/21 06:19:34;;;;;;;6.07;3.77;;;23.50;99.90;;;;;;4254849;27;20222;-74
2022/07/21 06:21:36;;;;;;;6.93;3.47;;;23.50;99.90;;;;;;4252288;27;20216;-74
2022/07/21 06:23:38;;;;;;;4.27;3.40;;;23.50;99.90;;;;;;4253210;27;20304;-74
2022/07/21 06:25:40;;;;;;;5.17;3.70;;;23.50;99.90;;;;;;4254212;27;20305;-74
2022/07/21 06:27:42;;;;;;;5.20;3.53;;;23.50;99.90;;;;;;4247704;27;20280;-74
2022/07/21 06:29:47;;;;;;;4.37;3.47;;;23.60;99.90;;;;;;4250085;27;20204;-74
2022/07/21 06:31:48;;;;;;;5.93;3.97;;;23.60;99.90;;;;;;4228880;27;20371;-74
2022/07/21 06:33:52;;;;;;;6.77;3.03;;;23.60;99.90;;;;;;4249020;27;20210;-74
2022/07/21 06:35:54;;;;;;;5.60;3.33;;;23.70;99.90;;;;;;4236789;27;20196;-74
2022/07/21 06:37:56;;;;;;;5.17;3.50;;;23.70;99.90;;;;;;4234800;27;20203;-73
2022/07/21 06:39:59;;;;;;;5.60;3.30;;;23.80;99.90;;;;;;4233753;27;20279;-75
2022/07/21 06:42:01;;;;;;;4.80;3.23;;;23.90;99.90;;;;;;4252344;27;20284;-75
2022/07/21 06:44:05;;;;;;;4.67;3.10;;;24.00;99.90;;;;;;4251712;27;20198;-76
2022/07/21 06:46:07;;;;;;;4.10;3.33;;;24.00;99.90;;;;;;4253823;27;20251;-75
2022/07/21 06:48:10;;;;;;;5.43;3.40;;;24.20;99.90;;;;;;4256163;27;20227;-75
2022/07/21 06:50:13;;;;;;;7.20;3.13;;;24.20;99.90;;;;;;4260457;27;20238;-75
2022/07/21 06:52:15;;;;;;;6.80;2.93;;;24.30;99.90;;;;;;4260952;27;20214;-76
2022/07/21 06:54:17;;;;;;;4.10;3.03;;;24.40;99.90;;;;;;4242282;27;20224;-76
2022/07/21 06:56:19;;;;;;;4.43;3.00;;;24.50;99.90;;;;;;4256163;27;20743;-76
2022/07/21 06:58:24;;;;;;;4.00;3.20;;;24.50;99.90;;;;;;4253560;27;20262;-76
2022/07/21 07:00:26;;;;;;;6.53;3.50;;;24.60;99.90;;;;;;4255458;27;20209;-75
2022/07/21 07:02:28;;;;;;;4.03;3.27;;;24.60;99.90;;;;;;4250717;27;20291;-76
2022/07/21 07:04:30;;;;;;;6.93;3.90;;;24.70;99.90;;;;;;4256458;27;20235;-75
2022/07/21 07:06:33;;;;;;;4.80;3.57;;;24.80;99.90;;;;;;4254992;27;20235;-76
2022/07/21 07:08:36;;;;;;;3.97;3.33;;;24.90;99.90;;;;;;4254210;27;20271;-76
2022/07/21 07:10:38;;;;;;;4.70;3.13;;;24.90;99.90;;;;;;4255652;27;20210;-76
2022/07/21 07:12:40;;;;;;;5.93;3.70;;;25.00;99.90;;;;;;4257824;27;20205;-76
2022/07/21 07:14:42;;;;;;;5.50;3.27;;;25.10;99.90;;;;;;4248167;27;20279;-77
2022/07/21 07:16:44;;;;;;;4.83;3.30;;;25.10;99.90;;;;;;4260042;27;20199;-76
2022/07/21 07:18:46;;;;;;;5.43;3.67;;;25.20;99.90;;;;;;4259729;27;20334;-76
2022/07/21 07:20:50;;;;;;;4.37;3.70;;;25.20;99.60;;;;;;4261197;27;20207;-76
2022/07/21 07:22:53;;;;;;;5.90;4.07;;;25.30;98.90;;;;;;4260901;27;20218;-76
2022/07/21 07:24:55;;;;;;;3.90;3.27;;;25.40;99.80;;;;;;4260598;27;20671;-76
2022/07/21 07:26:57;;;;;;;3.63;3.20;;;25.40;97.80;;;;;;4260515;27;20229;-77
2022/07/21 07:28:59;;;;;;;6.27;3.70;;;25.40;97.40;;;;;;4260647;27;20646;-76
2022/07/21 07:31:01;;;;;;;5.90;4.07;;;25.40;96.30;;;;;;4260563;27;20942;-77
2022/07/21 07:33:03;;;;;;;6.50;3.60;;;25.40;96.90;;;;;;4253579;27;20206;-76
2022/07/21 07:35:06;;;;;;;5.73;3.60;;;25.40;97.30;;;;;;4257743;27;20202;-76
2022/07/21 07:37:08;;;;;;;5.67;3.63;;;25.40;96.60;;;;;;4258282;27;20274;-76
2022/07/21 07:39:11;;;;;;;6.07;3.90;;;25.40;96.20;;;;;;4259937;27;20227;-76
2022/07/21 07:41:13;;;;;;;6.93;3.70;;;25.40;96.50;;;;;;4240673;28;20606;-76
2022/07/21 07:43:15;;;;;;;4.77;3.70;;;25.30;96.40;;;;;;4254676;27;20211;-76
2022/07/21 07:45:18;;;;;;;7.60;4.37;;;25.30;97.20;;;;;;4260801;27;20233;-76
2022/07/21 07:47:20;;;;;;;7.37;4.07;;;25.40;96.50;;;;;;4259207;27;20227;-77
2022/07/21 07:49:22;;;;;;;5.57;3.70;;;25.40;96.20;;;;;;4256554;27;20227;-76
2022/07/21 07:51:24;;;;;;;5.70;4.30;;;25.40;95.90;;;;;;4252650;27;20694;-77
2022/07/21 07:53:26;;;;;;;7.13;4.33;;;25.40;96.00;;;;;;4254862;27;20660;-77
2022/07/21 07:55:29;;;;;;;4.67;3.93;;;25.50;94.70;;;;;;4260487;27;20207;-77
2022/07/21 07:57:31;;;;;;;8.43;3.80;;;25.50;95.10;;;;;;4260001;27;20198;-76
2022/07/21 07:59:33;;;;;;;5.60;4.07;;;25.50;95.00;;;;;;4260530;27;20331;-77
2022/07/21 08:01:35;;;;;;;7.83;3.93;;;25.60;94.90;;;;;;4260179;27;20213;-76
2022/07/21 08:03:37;;;;;;;3.97;3.57;;;25.70;95.90;;;;;;4260527;27;20206;-77
2022/07/21 08:05:39;;;;;;;4.67;3.97;;;25.70;93.80;;;;;;4238167;28;20208;-78
2022/07/21 08:07:41;;;;;;;5.60;3.80;;;25.80;93.90;;;;;;4247501;27;20225;-77
2022/07/21 08:09:43;;;;;;;5.17;3.80;;;25.80;92.80;;;;;;4257662;27;20782;-76
2022/07/21 08:11:47;;;;;;;4.50;3.90;;;26.00;92.90;;;;;;4260452;27;20294;-77
2022/07/21 08:13:49;;;;;;;7.13;4.13;;;26.10;93.20;;;;;;4236535;28;20207;-76
2022/07/21 08:15:54;;;;;;;8.47;4.57;;;26.20;93.50;;;;;;4259248;27;20747;-76
2022/07/21 08:17:56;;;;;;;4.57;4.07;;;26.30;91.90;;;;;;4260337;27;20212;-76
2022/07/21 08:19:57;;;;;;;7.27;4.17;;;26.30;91.20;;;;;;4235233;28;20218;-76
2022/07/21 08:22:01;;;;;;;7.03;4.10;;;26.40;90.40;;;;;;4247050;27;20752;-75
2022/07/21 08:24:05;;;;;;;7.37;4.67;;;26.40;90.30;;;;;;4237376;28;20203;-76
2022/07/21 08:26:06;;;;;;;8.23;4.30;;;26.30;91.30;;;;;;4253363;27;20286;-76
2022/07/21 08:28:10;;;;;;;5.53;4.07;;;26.20;91.60;;;;;;4251799;27;20224;-76
2022/07/21 08:30:13;;;;;;;6.07;3.83;;;26.10;94.20;;;;;;4251856;27;20547;-75
2022/07/21 08:32:15;;;;;;;6.67;4.20;;;26.10;93.80;;;;;;4253368;27;21060;-76
2022/07/21 08:34:17;;;;;;;6.37;4.50;;;26.00;95.10;;;;;;4252824;27;20730;-75
2022/07/21 08:36:19;;;;;;;5.93;4.43;;;25.90;95.10;;;;;;4233025;27;20275;-75
2022/07/21 08:38:21;;;;;;;4.90;4.03;;;25.80;95.10;;;;;;4255746;27;20235;-76
2022/07/21 08:40:25;;;;;;;5.57;4.43;;;25.80;96.10;;;;;;4249744;27;20318;-75
2022/07/21 08:42:27;;;;;;;5.77;4.17;;;25.90;96.10;;;;;;4241480;27;20205;-75
2022/07/21 08:44:32;;;;;;;8.73;4.57;;;25.90;96.70;;;;;;4262159;27;20297;-75
2022/07/21 08:46:35;;;;;;;5.93;4.33;;;25.90;96.80;;;;;;4255685;27;20215;-75
2022/07/21 08:48:37;;;;;;;6.73;4.57;;;25.90;96.50;;;;;;4248662;27;20255;-76
2022/07/21 08:50:40;;;;;;;6.90;4.83;;;25.80;96.50;;;;;;4253977;27;20278;-75
2022/07/21 08:52:42;;;;;;;8.17;4.73;;;25.80;97.40;;;;;;4251041;27;20203;-75
2022/07/21 08:54:44;;;;;;;10.77;4.90;;;25.80;97.20;;;;;;4253724;27;20230;-75
2022/07/21 08:56:46;;;;;;;9.40;5.30;;;25.60;98.30;;;;;;4256416;27;20201;-75
2022/07/21 08:58:48;;;;;;;7.13;4.90;;;25.40;98.80;;;;;;4231822;27;20227;-75
2022/07/21 09:00:52;;;;;;;9.70;5.63;;;25.30;99.70;;;;;;4255177;27;20196;-75
2022/07/21 09:03:09;;;;;;;7.47;5.10;;;25.20;99.90;;;;;;4257409;27;20199;-75
2022/07/21 09:05:12;;;;;;;8.33;5.37;;;25.20;99.90;;;;;;4252757;27;20207;-75
2022/07/21 09:07:14;;;;;;;6.93;5.50;;;25.10;99.90;;;;;;4252591;27;20215;-76
2022/07/21 09:09:20;;;;;;;7.93;5.53;;;25.00;99.90;;;;;;4254213;27;20226;-75
2022/07/21 09:11:25;;;;;;;9.27;5.53;;;25.00;99.90;;;;;;4249308;27;20195;-75
2022/07/21 09:13:27;;;;;;;10.63;6.10;;;24.90;99.90;;;;;;4246768;27;20313;-75
2022/07/21 09:15:32;;;;;;;10.47;6.70;;;24.80;99.90;;;;;;4256645;27;20267;-75
2022/07/21 09:17:35;;;;;;;11.00;6.77;;;24.70;99.90;;;;;;4253520;27;20199;-75
2022/07/21 09:19:41;;;;;;;8.83;7.20;;;24.60;99.90;;;;;;4250311;27;20219;-75
2022/07/21 09:21:43;;;;;;;9.93;7.40;;;24.40;99.90;;;;;;4247380;27;20599;-75
2022/07/21 09:23:45;;;;;;;12.30;7.20;;;24.30;99.90;;;;;;4254737;27;20572;-75
2022/07/21 09:25:49;;;;;;;10.27;6.47;;;24.30;99.90;;;;;;4252351;27;20300;-76
2022/07/21 09:28:11;;;;;;;10.37;7.07;;;24.20;99.90;;;;;;4256758;27;20338;-74
2022/07/21 09:30:13;;;;;;;10.93;7.27;;;24.00;99.90;;;;;;4251893;27;20199;-69
2022/07/21 09:32:19;;;;;;;9.87;7.40;;;23.90;99.90;;;;;;4259287;27;20238;-69
2022/07/21 09:34:23;;;;;;;10.80;8.10;;;23.70;99.90;;;;;;4250747;27;20282;-73
2022/07/21 09:36:24;;;;;;;11.43;7.27;;;23.50;99.90;;;;;;4251605;27;20711;-73
2022/07/21 09:38:28;;;;;;;9.77;7.97;;;23.30;99.90;;;;;;4255834;27;20302;-73
2022/07/21 09:40:30;;;;;;;12.70;9.00;;;22.90;99.90;;;;;;4250516;27;20292;-73
2022/07/21 09:42:34;;;;;;;13.57;9.07;;;22.70;99.90;;;;;;4255702;27;20205;-73
2022/07/21 09:44:37;;;;;;;17.67;9.13;;;22.40;99.90;;;;;;4253799;27;20238;-73
2022/07/21 09:46:39;;;;;;;13.07;8.80;;;22.10;99.90;;;;;;4255057;27;20221;-73
2022/07/21 09:48:42;;;;;;;11.53;8.97;;;22.00;99.90;;;;;;4254110;27;20231;-73
2022/07/21 09:50:45;;;;;;;12.53;8.80;;;21.90;99.90;;;;;;4252559;27;20214;-73
2022/07/21 09:52:49;;;;;;;11.50;9.17;;;21.80;99.90;;;;;;4252271;27;20230;-73
2022/07/21 09:54:51;;;;;;;12.97;8.97;;;21.70;99.90;;;;;;4252947;27;21093;-73
2022/07/21 09:56:55;;;;;;;16.40;9.43;;;21.60;99.90;;;;;;4239516;27;20291;-73
2022/07/21 09:58:58;;;;;;;15.13;9.13;;;21.60;99.90;;;;;;4253920;27;20742;-73
2022/07/21 10:01:00;;;;;;;13.10;9.90;;;21.60;99.90;;;;;;4251970;27;20731;-73
2022/07/21 10:03:04;;;;;;;11.40;8.93;;;21.50;99.90;;;;;;4248655;27;20826;-73
2022/07/21 10:05:08;;;;;;;11.33;9.13;;;21.60;99.90;;;;;;4246412;27;20255;-74
2022/07/21 10:07:12;;;;;;;11.47;9.63;;;21.60;99.90;;;;;;4251098;27;20214;-73
2022/07/21 10:09:14;;;;;;;11.77;9.50;;;21.70;99.90;;;;;;4231930;27;20228;-73
2022/07/21 10:11:17;;;;;;;13.83;9.20;;;21.80;99.90;;;;;;4256031;27;20256;-73
2022/07/21 10:13:19;;;;;;;11.17;8.50;;;21.90;99.90;;;;;;4250172;27;20672;-73
2022/07/21 10:15:21;;;;;;;11.07;8.60;;;22.00;99.90;;;;;;4255028;27;20302;-73
2022/07/21 10:17:25;;;;;;;9.97;8.10;;;22.10;99.90;;;;;;4252361;27;20637;-73
2022/07/21 10:19:31;;;;;;;13.93;8.30;;;22.20;99.90;;;;;;4253480;27;20693;-73
2022/07/21 10:21:40;;;;;;;11.30;8.80;;;22.30;99.90;;;;;;4251148;27;20695;-73
2022/07/21 10:23:44;;;;;;;12.13;8.47;;;22.40;99.90;;;;;;4232780;27;20216;-73
2022/07/21 10:25:47;;;;;;;12.60;8.87;;;22.40;99.90;;;;;;4254311;27;20983;-73
2022/07/21 10:28:14;;;;;;;9.87;8.10;;;22.50;99.90;;;;;;4251153;27;20226;-73
2022/07/21 10:30:19;;;;;;;12.70;8.10;;;22.60;99.90;;;;;;4249554;27;20204;-73
2022/07/21 10:32:22;;;;;;;12.37;8.50;;;22.70;99.90;;;;;;4246835;27;20203;-73
2022/07/21 10:34:35;;;;;;;12.50;8.30;;;22.90;99.90;;;;;;4251942;27;20259;-73
2022/07/21 10:36:47;;;;;;;10.90;7.77;;;23.00;99.90;;;;;;4251646;27;20237;-73
2022/07/21 10:39:16;;;;;;;10.57;7.77;;;23.20;99.90;;;;;;4250723;27;20267;-74